createdAt,value
2023-05-05T00:02:25.380Z,54.47
2023-05-05T00:05:40.319Z,54.63
2023-05-05T00:08:48.852Z,54.73
2023-05-05T00:12:04.629Z,54.47
2023-05-05T00:15:13.369Z,54.17
2023-05-05T00:18:29.055Z,54.10
2023-05-05T00:21:36.959Z,54.30
2023-05-05T00:24:45.319Z,54.48
2023-05-05T00:28:00.388Z,54.65
2023-05-05T00:31:16.565Z,54.82
2023-05-05T00:34:31.352Z,54.14
2023-05-05T00:37:33.250Z,54.21
2023-05-05T00:40:48.477Z,54.73
2023-05-05T00:43:50.167Z,54.72
2023-05-05T00:47:04.359Z,54.58
2023-05-05T00:50:28.404Z,54.85
2023-05-05T00:53:30.715Z,54.64
2023-05-05T00:56:45.386Z,54.75
2023-05-05T01:00:02.367Z,55.12
2023-05-05T01:03:18.504Z,54.78
2023-05-05T01:06:51.673Z,55.07
2023-05-05T01:10:19.620Z,55.00
2023-05-05T01:13:47.484Z,54.86
2023-05-05T01:17:07.390Z,55.13
2023-05-05T01:20:28.373Z,55.05
2023-05-05T01:24:07.340Z,56.01
2023-05-05T01:27:36.375Z,55.41
2023-05-05T01:31:08.856Z,55.45
2023-05-05T01:34:30.430Z,56.02
2023-05-05T01:37:55.392Z,56.46
2023-05-05T01:41:23.366Z,56.76
2023-05-05T01:44:27.791Z,57.25
2023-05-05T01:47:45.467Z,58.53
2023-05-05T01:50:54.345Z,58.27
2023-05-05T01:54:12.513Z,59.04
2023-05-05T01:57:26.369Z,58.86
2023-05-05T02:00:41.391Z,58.84
2023-05-05T02:03:51.394Z,59.27
2023-05-05T02:07:01.996Z,59.14
2023-05-05T02:10:12.383Z,59.51
2023-05-05T02:13:29.428Z,59.89
2023-05-05T02:16:46.478Z,59.61
2023-05-05T02:19:56.421Z,56.60
2023-05-05T02:23:12.531Z,56.85
2023-05-05T02:26:29.420Z,56.41
2023-05-05T02:29:51.789Z,56.70
2023-05-05T02:33:06.601Z,57.04
2023-05-05T02:36:19.941Z,59.30
2023-05-05T02:39:33.682Z,60.51
2023-05-05T02:42:46.753Z,60.86
2023-05-05T02:45:55.420Z,61.22
2023-05-05T02:49:04.223Z,61.88
2023-05-05T02:52:18.435Z,62.50
2023-05-05T02:55:27.442Z,63.16
2023-05-05T02:59:00.905Z,63.67
2023-05-05T03:02:26.507Z,64.02
2023-05-05T03:05:42.054Z,64.15
2023-05-05T03:09:05.751Z,64.33
2023-05-05T03:12:20.300Z,64.63
2023-05-05T03:15:36.427Z,64.72
2023-05-05T03:18:53.447Z,64.88
2023-05-05T03:21:55.606Z,65.32
2023-05-05T03:25:11.431Z,65.65
2023-05-05T03:28:15.248Z,65.59
2023-05-05T03:31:36.442Z,65.88
2023-05-05T03:34:45.442Z,66.11
2023-05-05T03:37:53.938Z,65.60
2023-05-05T03:41:02.462Z,65.65
2023-05-05T03:44:19.444Z,65.21
2023-05-05T03:47:21.107Z,65.71
2023-05-05T03:50:35.447Z,65.43
2023-05-05T03:53:43.573Z,65.69
2023-05-05T03:56:58.446Z,65.20
2023-05-05T04:00:00.603Z,65.18
2023-05-05T04:03:15.591Z,65.83
2023-05-05T04:06:17.405Z,65.58
2023-05-05T04:09:34.504Z,65.43
2023-05-05T04:12:36.333Z,65.90
2023-05-05T04:15:52.505Z,65.64
2023-05-05T04:19:01.094Z,65.81
2023-05-05T04:22:16.610Z,65.54
2023-05-05T04:25:25.189Z,65.04
2023-05-05T04:28:33.499Z,63.94
2023-05-05T04:31:42.678Z,64.11
2023-05-05T04:34:57.534Z,61.84
2023-05-05T04:38:05.454Z,61.39
2023-05-05T04:41:20.529Z,61.04
2023-05-05T04:44:35.469Z,61.05
2023-05-05T04:47:45.486Z,62.73
2023-05-05T04:50:54.280Z,62.24
2023-05-05T04:54:02.489Z,62.42
2023-05-05T04:57:17.568Z,61.17
2023-05-05T05:00:32.501Z,61.66
2023-05-05T05:03:41.593Z,61.31
2023-05-05T05:06:58.976Z,59.77
2023-05-05T05:10:07.730Z,58.95
2023-05-05T05:13:16.038Z,59.21
2023-05-05T05:16:24.528Z,58.45
2023-05-05T05:19:39.495Z,58.38
2023-05-05T05:22:41.114Z,58.41
2023-05-05T05:25:55.517Z,58.38
2023-05-05T05:28:57.484Z,58.13
2023-05-05T05:32:19.836Z,56.89
2023-05-05T05:35:21.560Z,57.42
2023-05-05T05:38:36.530Z,58.13
2023-05-05T05:41:38.159Z,56.54
2023-05-05T05:44:52.494Z,56.29
2023-05-05T05:48:00.997Z,55.05
2023-05-05T05:51:09.545Z,54.42
2023-05-05T05:54:18.092Z,54.31
2023-05-05T05:57:32.524Z,53.89
2023-05-05T06:00:47.979Z,53.37
2023-05-05T06:03:51.187Z,51.62
2023-05-05T06:07:05.511Z,51.97
2023-05-05T06:10:31.640Z,51.33
2023-05-05T06:13:40.534Z,50.87
2023-05-05T06:16:49.794Z,51.25
2023-05-05T06:19:58.873Z,52.27
2023-05-05T06:23:07.968Z,50.83
2023-05-05T06:26:16.866Z,51.24
2023-05-05T06:29:32.090Z,50.13
2023-05-05T06:32:43.669Z,50.52
2023-05-05T06:35:53.239Z,51.07
2023-05-05T06:39:01.857Z,51.08
2023-05-05T06:42:16.637Z,50.51
2023-05-05T06:45:32.654Z,49.25
2023-05-05T06:48:57.838Z,52.27
2023-05-05T06:51:59.710Z,48.38
2023-05-05T06:55:19.161Z,48.43
2023-05-05T06:58:20.924Z,47.42
2023-05-05T07:05:00.873Z,47.94
2023-05-05T07:08:16.962Z,49.38
2023-05-05T07:11:27.481Z,47.27
2023-05-05T07:14:45.407Z,47.81
2023-05-05T07:17:56.143Z,47.10
2023-05-05T07:21:11.897Z,47.29
2023-05-05T07:24:27.574Z,47.49
2023-05-05T07:27:31.534Z,48.04
2023-05-05T07:30:46.622Z,48.78
2023-05-05T07:34:03.094Z,47.19
2023-05-05T07:37:22.690Z,47.96
2023-05-05T07:40:39.627Z,48.50
2023-05-05T07:43:54.631Z,48.13
2023-05-05T07:47:06.101Z,48.75
2023-05-05T07:50:23.773Z,48.14
2023-05-05T07:53:32.439Z,48.02
2023-05-05T07:56:47.565Z,47.77
2023-05-05T07:59:56.709Z,46.65
2023-05-05T08:03:05.027Z,47.16
2023-05-05T08:06:21.899Z,46.12
2023-05-05T08:09:36.803Z,46.05
2023-05-05T08:12:45.647Z,46.92
2023-05-05T08:16:00.717Z,47.68
2023-05-05T08:19:25.002Z,46.68
2023-05-05T08:22:33.086Z,47.07
2023-05-05T08:25:41.625Z,45.97
2023-05-05T08:28:56.662Z,45.87
2023-05-05T08:32:19.372Z,45.82
2023-05-05T08:35:27.645Z,45.31
2023-05-05T08:38:43.339Z,45.16
2023-05-05T08:41:51.226Z,45.49
2023-05-05T08:44:59.614Z,45.12
2023-05-05T08:48:15.649Z,45.26
2023-05-05T08:51:30.831Z,45.89
2023-05-05T08:54:53.736Z,44.71
2023-05-05T08:58:04.669Z,44.17
2023-05-05T09:01:14.611Z,44.59
2023-05-05T09:04:23.678Z,44.18
2023-05-05T09:07:35.119Z,44.55
2023-05-05T09:11:04.873Z,43.40
2023-05-05T09:14:20.221Z,43.61
2023-05-05T09:17:31.723Z,43.68
2023-05-05T09:20:43.650Z,43.24
2023-05-05T09:24:16.662Z,43.15
2023-05-05T09:27:45.847Z,43.31
2023-05-05T09:31:20.690Z,43.14
2023-05-05T09:34:28.693Z,43.21
2023-05-05T09:37:47.966Z,42.25
2023-05-05T09:41:10.077Z,39.48
2023-05-05T09:44:40.145Z,28.96
2023-05-05T09:47:41.938Z,24.21
2023-05-05T09:50:57.130Z,21.92
2023-05-05T09:53:59.031Z,21.13
2023-05-05T09:57:15.731Z,19.87
2023-05-05T10:00:43.912Z,20.13
2023-05-05T10:03:53.370Z,20.00
2023-05-05T10:07:12.874Z,18.33
2023-05-05T10:10:36.471Z,18.18
2023-05-05T10:13:54.694Z,17.52
2023-05-05T10:17:04.129Z,17.34
2023-05-05T10:20:16.734Z,17.87
2023-05-05T10:23:38.219Z,17.36
2023-05-05T10:27:04.715Z,16.73
2023-05-05T10:30:32.880Z,17.49
2023-05-05T10:34:15.203Z,18.01
2023-05-05T10:37:24.918Z,17.82
2023-05-05T10:40:33.726Z,18.94
2023-05-05T10:43:42.784Z,17.52
2023-05-05T10:46:51.718Z,17.77
2023-05-05T10:50:23.785Z,16.99
2023-05-05T10:53:32.730Z,16.33
2023-05-05T10:56:50.370Z,17.17
2023-05-05T10:59:52.150Z,17.54
2023-05-05T11:03:27.019Z,19.28
2023-05-05T11:06:28.818Z,19.62
2023-05-05T11:10:01.897Z,19.83
2023-05-05T11:13:30.738Z,21.33
2023-05-05T11:16:46.427Z,20.17
2023-05-05T11:20:13.802Z,19.27
2023-05-05T11:23:22.910Z,19.59
2023-05-05T11:26:50.740Z,18.46
2023-05-05T11:30:14.811Z,18.45
2023-05-05T11:33:38.603Z,20.87
2023-05-05T11:36:47.700Z,19.32
2023-05-05T11:40:09.931Z,19.69
2023-05-05T11:43:19.669Z,23.67
2023-05-05T11:46:34.802Z,27.24
2023-05-05T11:49:43.474Z,28.80
2023-05-05T11:53:01.786Z,29.94
2023-05-05T11:56:12.268Z,30.53
2023-05-05T11:59:26.804Z,31.10
2023-05-05T12:02:47.393Z,30.78
2023-05-05T12:05:57.580Z,31.03
2023-05-05T12:09:15.960Z,30.49
2023-05-05T12:12:26.786Z,30.49
2023-05-05T12:15:41.755Z,30.47
2023-05-05T12:18:49.806Z,29.20
2023-05-05T12:22:01.339Z,29.22
2023-05-05T12:25:11.836Z,29.33
2023-05-05T12:28:26.879Z,30.37
2023-05-05T12:31:38.394Z,29.57
2023-05-05T12:34:53.817Z,29.69
2023-05-05T12:38:08.789Z,29.55
2023-05-05T12:41:10.516Z,30.23
2023-05-05T12:44:24.850Z,29.83
2023-05-05T12:47:33.447Z,29.31
2023-05-05T12:50:50.810Z,29.56
2023-05-05T12:54:15.803Z,29.56
2023-05-05T12:57:17.483Z,28.72
2023-05-05T13:00:37.005Z,28.87
2023-05-05T13:03:38.840Z,28.78
2023-05-05T13:06:56.076Z,28.57
2023-05-05T13:10:08.373Z,27.80
2023-05-05T13:13:16.843Z,27.75
2023-05-05T13:16:31.862Z,28.68
2023-05-05T13:19:40.758Z,29.48
2023-05-05T13:22:55.874Z,29.78
2023-05-05T13:25:58.557Z,29.76
2023-05-05T13:29:12.845Z,29.83
2023-05-05T13:32:27.867Z,29.55
2023-05-05T13:35:36.339Z,29.48
2023-05-05T13:38:45.078Z,29.52
2023-05-05T13:41:53.885Z,28.99
2023-05-05T13:45:07.079Z,28.34
2023-05-05T13:48:15.404Z,28.08
2023-05-05T13:51:24.167Z,27.79
2023-05-05T13:54:38.844Z,27.75
2023-05-05T13:57:48.623Z,27.81
2023-05-05T14:00:56.969Z,28.17
2023-05-05T14:04:13.045Z,27.99
2023-05-05T14:07:27.866Z,28.01
2023-05-05T14:10:30.038Z,28.35
2023-05-05T14:13:45.911Z,28.74
2023-05-05T14:16:50.045Z,28.26
2023-05-05T14:20:07.893Z,28.43
2023-05-05T14:23:10.076Z,27.76
2023-05-05T14:26:24.881Z,27.90
2023-05-05T14:29:26.894Z,28.08
2023-05-05T14:32:50.108Z,28.25
2023-05-05T14:35:59.015Z,28.45
2023-05-05T14:39:13.968Z,28.57
2023-05-05T14:42:33.128Z,28.69
2023-05-05T14:45:47.909Z,29.13
2023-05-05T14:48:49.605Z,29.26
2023-05-05T14:52:05.922Z,29.01
2023-05-05T14:55:15.217Z,28.77
2023-05-05T14:58:31.248Z,28.62
2023-05-05T15:01:44.040Z,28.81
2023-05-05T15:04:58.923Z,29.01
2023-05-05T15:08:01.009Z,29.15
2023-05-05T15:11:15.957Z,28.74
2023-05-05T15:14:26.938Z,29.07
2023-05-05T15:17:42.010Z,29.60
2023-05-05T15:20:43.969Z,30.37
2023-05-05T15:23:59.230Z,30.38
2023-05-05T15:27:07.389Z,30.21
2023-05-05T15:30:21.898Z,30.71
2023-05-05T15:33:36.930Z,30.76
2023-05-05T15:36:55.222Z,31.34
2023-05-05T15:40:03.318Z,31.40
2023-05-05T15:43:19.000Z,31.35
2023-05-05T15:46:26.959Z,31.85
2023-05-05T15:49:36.442Z,31.51
2023-05-05T15:52:44.977Z,31.81
2023-05-05T15:56:15.980Z,31.47
2023-05-05T15:59:25.454Z,31.72
2023-05-05T16:02:40.101Z,31.90
2023-05-05T16:05:47.991Z,32.08
2023-05-05T16:08:56.445Z,32.64
2023-05-05T16:12:05.078Z,33.11
2023-05-05T16:15:20.695Z,33.42
2023-05-05T16:18:29.256Z,33.34
2023-05-05T16:21:44.136Z,33.51
2023-05-05T16:24:52.453Z,33.64
2023-05-05T16:28:01.014Z,33.67
2023-05-05T16:31:33.919Z,33.73
2023-05-05T16:34:45.218Z,33.65
2023-05-05T16:38:00.283Z,33.69
2023-05-05T16:41:01.951Z,33.27
2023-05-05T16:44:16.996Z,33.53
2023-05-05T16:54:26.799Z,34.16
2023-05-05T16:57:35.041Z,34.33
2023-05-05T17:00:43.784Z,33.96
2023-05-05T17:03:52.007Z,34.31
2023-05-05T17:07:07.037Z,34.07
2023-05-05T17:10:16.010Z,34.56
2023-05-05T17:13:31.016Z,34.91
2023-05-05T17:16:39.116Z,34.93
2023-05-05T17:19:53.961Z,35.20
2023-05-05T17:22:55.749Z,35.49
2023-05-05T17:26:10.066Z,35.74
2023-05-05T17:29:19.062Z,36.10
2023-05-05T17:32:27.042Z,35.96
2023-05-05T17:35:42.044Z,35.84
2023-05-05T17:38:43.760Z,35.96
2023-05-05T17:41:57.989Z,36.09
2023-05-05T17:45:00.002Z,36.20
2023-05-05T17:48:15.180Z,36.85
2023-05-05T17:51:16.938Z,37.13
2023-05-05T17:54:32.039Z,36.91
2023-05-05T17:57:33.682Z,36.96
2023-05-05T18:00:48.028Z,36.75
2023-05-05T18:04:03.026Z,36.41
2023-05-05T18:07:19.066Z,36.47
2023-05-05T18:10:27.038Z,36.84
2023-05-05T18:13:35.872Z,37.82
2023-05-05T18:16:44.093Z,38.01
2023-05-05T18:19:53.154Z,37.83
2023-05-05T18:23:01.974Z,38.35
2023-05-05T18:26:17.082Z,38.93
2023-05-05T18:29:27.105Z,39.37
2023-05-05T18:32:42.295Z,40.06
2023-05-05T18:35:50.070Z,40.39
2023-05-05T18:38:59.510Z,40.63
2023-05-05T18:42:14.095Z,41.43
2023-05-05T18:45:22.843Z,41.84
2023-05-05T18:48:31.368Z,43.05
2023-05-05T18:51:46.161Z,44.46
2023-05-05T18:54:47.788Z,44.96
2023-05-05T18:58:02.892Z,45.49
2023-05-05T19:01:11.343Z,45.98
2023-05-05T19:04:31.270Z,46.33
2023-05-05T19:07:40.315Z,46.73
2023-05-05T19:10:55.114Z,47.04
2023-05-05T19:14:10.076Z,47.37
2023-05-05T19:17:19.052Z,47.63
2023-05-05T19:20:35.100Z,47.76
2023-05-05T19:23:43.283Z,48.30
2023-05-05T19:26:51.661Z,48.24
2023-05-05T19:30:00.111Z,48.36
2023-05-05T19:33:22.063Z,48.54
2023-05-05T19:36:30.099Z,48.65
2023-05-05T19:39:38.612Z,48.74
2023-05-05T19:42:47.094Z,48.56
2023-05-05T19:45:55.784Z,48.74
2023-05-05T19:49:04.141Z,48.57
2023-05-05T19:52:12.794Z,48.98
2023-05-05T19:55:21.189Z,49.42
2023-05-05T19:58:29.743Z,49.94
2023-05-05T20:01:38.142Z,50.30
2023-05-05T20:04:46.687Z,50.61
2023-05-05T20:07:56.426Z,51.06
2023-05-05T20:11:04.723Z,51.35
2023-05-05T20:14:19.453Z,51.65
2023-05-05T20:17:21.184Z,51.47
2023-05-05T20:20:36.150Z,51.56
2023-05-05T20:23:37.909Z,51.78
2023-05-05T20:26:52.278Z,52.06
2023-05-05T20:30:00.724Z,52.32
2023-05-05T20:33:22.166Z,52.85
2023-05-05T20:36:30.696Z,53.04
2023-05-05T20:39:45.149Z,53.61
2023-05-05T20:42:53.920Z,54.01
2023-05-05T20:46:02.145Z,54.30
2023-05-05T20:49:10.731Z,54.77
2023-05-05T20:52:19.183Z,54.82
2023-05-05T20:55:34.114Z,54.80
2023-05-05T20:58:36.508Z,55.16
2023-05-05T21:01:51.402Z,55.41
2023-05-05T21:04:59.915Z,55.90
2023-05-05T21:08:14.148Z,56.15
2023-05-05T21:11:22.195Z,56.66
2023-05-05T21:14:37.146Z,57.16
2023-05-05T21:17:47.939Z,57.55
2023-05-05T21:20:55.822Z,58.03
2023-05-05T21:24:11.154Z,58.46
2023-05-05T21:27:20.498Z,58.56
2023-05-05T21:30:30.435Z,59.10
2023-05-05T21:33:45.166Z,59.81
2023-05-05T21:36:53.183Z,60.20
2023-05-05T21:40:02.013Z,60.58
2023-05-05T21:43:11.820Z,61.09
2023-05-05T21:46:26.538Z,61.59
2023-05-05T21:49:29.320Z,61.84
2023-05-05T21:52:45.341Z,61.81
2023-05-05T21:55:54.181Z,62.16
2023-05-05T21:59:04.145Z,62.23
2023-05-05T22:02:12.296Z,62.20
2023-05-05T22:05:27.207Z,62.36
2023-05-05T22:08:28.832Z,62.27
2023-05-05T22:11:43.206Z,62.40
2023-05-05T22:14:44.913Z,62.53
2023-05-05T22:17:59.288Z,62.66
2023-05-05T22:21:08.186Z,62.93
2023-05-05T22:24:17.124Z,62.86
2023-05-05T22:27:25.191Z,63.02
2023-05-05T22:30:33.850Z,62.95
2023-05-05T22:33:49.242Z,63.18
2023-05-05T22:37:04.265Z,63.57
2023-05-05T22:40:12.995Z,63.69
2023-05-05T22:43:28.222Z,63.93
2023-05-05T22:46:36.231Z,64.07
2023-05-05T22:49:52.298Z,64.43
2023-05-05T22:53:07.260Z,64.65
2023-05-05T22:56:15.780Z,64.64
2023-05-05T22:59:30.524Z,64.68
2023-05-05T23:02:40.345Z,64.75
2023-05-05T23:05:48.314Z,65.04
2023-05-05T23:09:03.220Z,65.27
2023-05-05T23:12:12.235Z,65.64
2023-05-05T23:15:28.256Z,66.04
2023-05-05T23:18:37.173Z,66.17
2023-05-05T23:21:52.714Z,66.18
2023-05-05T23:25:01.771Z,66.12
2023-05-05T23:28:16.263Z,66.03
2023-05-05T23:31:25.015Z,66.07
2023-05-05T23:34:46.242Z,65.93
2023-05-05T23:37:54.984Z,65.98
2023-05-05T23:41:03.296Z,66.18
2023-05-05T23:44:18.522Z,66.30
2023-05-05T23:47:26.250Z,66.37
2023-05-05T23:50:35.297Z,66.37
2023-05-05T23:53:43.263Z,66.72
2023-05-05T23:56:51.823Z,66.63
